createdAt,value
2024-02-07T00:03:38.371Z,100354.53
2024-02-07T00:08:40.416Z,100371.47
2024-02-07T00:13:42.896Z,100368.63
2024-02-07T00:18:44.772Z,100374.03
2024-02-07T00:23:46.384Z,100378.44
2024-02-07T00:28:47.989Z,100373.19
2024-02-07T00:33:49.856Z,100371.34
2024-02-07T00:38:51.538Z,100373.88
2024-02-07T00:43:56.302Z,100370.91
2024-02-07T00:48:57.988Z,100370.78
2024-02-07T00:53:59.622Z,100367.31
2024-02-07T00:59:01.164Z,100365.19
2024-02-07T01:04:02.769Z,100366.47
2024-02-07T01:09:04.572Z,100360.22
2024-02-07T01:14:06.170Z,100358.34
2024-02-07T01:19:08.189Z,100360.22
2024-02-07T01:24:09.804Z,100366.03
2024-02-07T01:29:11.416Z,100369.03
2024-02-07T01:34:13.078Z,100362.22
2024-02-07T01:39:19.508Z,100358.78
2024-02-07T01:44:21.320Z,100359.22
2024-02-07T01:49:23.507Z,100372.88
2024-02-07T01:54:25.278Z,100379.00
2024-02-07T01:59:27.130Z,100374.56
2024-02-07T02:04:29.465Z,100371.03
2024-02-07T02:09:31.398Z,100383.09
2024-02-07T02:14:33.443Z,100385.25
2024-02-07T02:19:37.892Z,100382.16
2024-02-07T02:24:48.348Z,100402.03
2024-02-07T02:29:55.428Z,100401.06
2024-02-07T02:34:59.092Z,100406.47
2024-02-07T02:40:01.435Z,100391.94
2024-02-07T02:45:03.203Z,100396.94
2024-02-07T02:50:05.371Z,100402.47
2024-02-07T02:55:08.471Z,100405.75
2024-02-07T03:00:11.329Z,100397.81
2024-02-07T03:05:35.877Z,100388.53
2024-02-07T03:10:37.989Z,100397.22
2024-02-07T03:15:40.554Z,100383.03
2024-02-07T03:20:42.470Z,100389.97
2024-02-07T03:25:44.205Z,100376.19
2024-02-07T03:30:46.029Z,100372.75
2024-02-07T03:35:47.783Z,100380.44
2024-02-07T03:40:51.243Z,100367.06
2024-02-07T03:45:53.925Z,100375.03
2024-02-07T03:50:55.591Z,100369.75
2024-02-07T03:55:57.193Z,100374.91
2024-02-07T04:00:59.746Z,100382.28
2024-02-07T04:06:05.971Z,100393.25
2024-02-07T04:11:09.036Z,100392.13
2024-02-07T04:16:29.667Z,100399.66
2024-02-07T04:21:49.520Z,100414.72
2024-02-07T04:27:12.768Z,100399.91
2024-02-07T04:32:33.016Z,100416.31
2024-02-07T04:37:53.620Z,100417.31
2024-02-07T04:43:13.745Z,100423.69
2024-02-07T04:48:34.172Z,100424.84
2024-02-07T04:53:54.302Z,100452.75
2024-02-07T04:59:14.241Z,100450.88
2024-02-07T05:04:34.098Z,100446.63
2024-02-07T05:09:54.238Z,100461.72
2024-02-07T05:14:55.773Z,100452.03
2024-02-07T05:19:58.351Z,100469.09
2024-02-07T05:25:01.682Z,100483.44
2024-02-07T05:30:04.968Z,100488.69
2024-02-07T05:35:06.754Z,100494.50
2024-02-07T05:40:08.871Z,100498.22
2024-02-07T05:45:10.550Z,100507.59
2024-02-07T05:50:12.593Z,100509.59
2024-02-07T05:55:14.458Z,100518.41
2024-02-07T06:00:16.664Z,100513.00
2024-02-07T06:05:18.726Z,100527.97
2024-02-07T06:10:21.937Z,100538.63
2024-02-07T06:15:23.646Z,100535.50
2024-02-07T06:20:25.490Z,100544.34
2024-02-07T06:25:28.197Z,100548.75
2024-02-07T06:30:29.837Z,100550.72
2024-02-07T06:35:31.457Z,100552.91
2024-02-07T06:40:33.150Z,100556.31
2024-02-07T06:45:34.726Z,100561.97
2024-02-07T06:50:36.338Z,100571.53
2024-02-07T06:55:37.914Z,100582.66
2024-02-07T07:00:39.775Z,100582.75
2024-02-07T07:05:41.438Z,100582.50
2024-02-07T07:10:43.381Z,100569.53
2024-02-07T07:15:44.931Z,100575.94
2024-02-07T07:20:46.446Z,100576.34
2024-02-07T07:25:49.153Z,100582.47
2024-02-07T07:30:50.815Z,100603.25
2024-02-07T07:35:52.684Z,100598.53
2024-02-07T07:40:54.351Z,100596.44
2024-02-07T07:45:56.398Z,100606.38
2024-02-07T07:50:57.925Z,100597.69
2024-02-07T07:55:59.631Z,100603.94
2024-02-07T08:01:01.345Z,100610.09
2024-02-07T08:06:03.075Z,100626.88
2024-02-07T08:11:04.926Z,100638.56
2024-02-07T08:16:06.856Z,100638.56
2024-02-07T08:21:09.672Z,100633.72
2024-02-07T08:26:12.246Z,100655.94
2024-02-07T08:31:14.045Z,100648.28
2024-02-07T08:36:15.765Z,100647.00
2024-02-07T08:41:17.516Z,100670.69
2024-02-07T08:46:19.113Z,100668.53
2024-02-07T08:51:20.738Z,100660.16
2024-02-07T08:56:22.377Z,100661.72
2024-02-07T09:01:24.489Z,100654.78
2024-02-07T09:06:26.165Z,100645.94
2024-02-07T09:11:27.787Z,100658.09
2024-02-07T09:16:29.425Z,100669.34
2024-02-07T09:21:34.571Z,100668.19
2024-02-07T09:26:37.318Z,100667.06
2024-02-07T09:31:38.939Z,100670.91
2024-02-07T09:36:42.016Z,100677.94
2024-02-07T09:41:44.662Z,100671.25
2024-02-07T09:46:46.717Z,100676.78
2024-02-07T09:51:48.497Z,100684.81
2024-02-07T09:56:50.325Z,100696.63
2024-02-07T10:01:54.046Z,100696.63
2024-02-07T10:06:55.683Z,100707.19
2024-02-07T10:11:57.692Z,100709.63
2024-02-07T10:16:59.299Z,100707.03
2024-02-07T10:22:01.206Z,100712.88
2024-02-07T10:27:02.778Z,100712.59
2024-02-07T10:32:05.650Z,100717.16
2024-02-07T10:37:07.615Z,100728.44
2024-02-07T10:42:10.499Z,100716.88
2024-02-07T10:47:12.285Z,100714.63
2024-02-07T10:52:13.998Z,100702.03
2024-02-07T10:57:16.298Z,100695.38
2024-02-07T11:02:18.395Z,100690.81
2024-02-07T11:07:21.078Z,100690.06
2024-02-07T11:12:23.566Z,100685.50
2024-02-07T11:17:25.356Z,100679.38
2024-02-07T11:22:34.076Z,100678.03
2024-02-07T11:27:41.254Z,100677.06
2024-02-07T11:32:42.864Z,100682.16
2024-02-07T11:37:49.633Z,100681.41
2024-02-07T11:43:01.183Z,100683.59
2024-02-07T11:48:03.029Z,100672.50
2024-02-07T11:53:04.787Z,100664.84
2024-02-07T11:58:08.805Z,100661.22
2024-02-07T12:03:14.161Z,100663.13
2024-02-07T12:08:16.200Z,100653.84
2024-02-07T12:13:17.893Z,100656.13
2024-02-07T12:18:19.524Z,100663.97
2024-02-07T12:23:21.133Z,100654.69
2024-02-07T12:28:22.723Z,100657.97
2024-02-07T12:33:25.022Z,100661.16
2024-02-07T12:38:27.166Z,100656.75
2024-02-07T12:43:31.783Z,100648.66
2024-02-07T12:48:34.412Z,100661.28
2024-02-07T12:53:36.517Z,100659.13
2024-02-07T12:58:47.393Z,100666.16
2024-02-07T13:03:49.058Z,100665.06
2024-02-07T13:08:50.895Z,100664.09
2024-02-07T13:13:52.511Z,100660.72
2024-02-07T13:18:55.516Z,100661.19
2024-02-07T13:23:57.144Z,100655.66
2024-02-07T13:28:58.931Z,100647.38
2024-02-07T13:34:00.714Z,100643.50
2024-02-07T13:39:02.311Z,100655.66
2024-02-07T13:44:03.952Z,100651.38
2024-02-07T13:49:09.834Z,100650.94
2024-02-07T13:54:14.055Z,100649.78
2024-02-07T13:59:16.630Z,100631.53
2024-02-07T14:04:18.394Z,100636.13
2024-02-07T14:09:20.107Z,100631.53
2024-02-07T14:14:21.735Z,100627.72
2024-02-07T14:19:23.422Z,100624.88
2024-02-07T14:24:25.075Z,100619.19
2024-02-07T14:29:26.609Z,100614.78
2024-02-07T14:34:28.332Z,100608.91
2024-02-07T14:39:31.277Z,100599.06
2024-02-07T14:44:32.907Z,100583.13
2024-02-07T14:49:34.603Z,100579.41
2024-02-07T14:54:36.399Z,100579.44
2024-02-07T14:59:38.032Z,100575.16
2024-02-07T15:04:42.673Z,100565.22
2024-02-07T15:09:45.504Z,100576.47
2024-02-07T15:14:48.486Z,100570.06
2024-02-07T15:19:50.016Z,100553.66
2024-02-07T15:24:51.584Z,100558.66
2024-02-07T15:29:53.138Z,100570.50
2024-02-07T15:34:54.700Z,100569.22
2024-02-07T15:39:56.355Z,100568.38
2024-02-07T15:44:57.926Z,100563.22
2024-02-07T15:49:59.554Z,100554.09
2024-02-07T15:55:01.198Z,100560.53
2024-02-07T16:00:03.209Z,100550.56
2024-02-07T16:05:05.223Z,100541.84
2024-02-07T16:10:08.523Z,100539.31
2024-02-07T16:15:10.297Z,100534.47
2024-02-07T16:20:12.403Z,100530.19
2024-02-07T16:25:14.067Z,100526.91
2024-02-07T16:30:15.865Z,100527.22
2024-02-07T16:35:18.709Z,100528.34
2024-02-07T16:40:20.439Z,100529.06
2024-02-07T16:45:22.023Z,100522.38
2024-02-07T16:50:23.560Z,100524.09
2024-02-07T16:55:25.248Z,100533.88
2024-02-07T17:00:26.893Z,100536.31
2024-02-07T17:05:28.480Z,100522.63
2024-02-07T17:10:30.465Z,100529.16
2024-02-07T17:15:33.757Z,100533.84
2024-02-07T17:20:35.399Z,100539.47
2024-02-07T17:25:37.063Z,100536.16
2024-02-07T17:30:38.669Z,100531.44
2024-02-07T17:35:40.225Z,100543.66
2024-02-07T17:40:42.033Z,100555.47
2024-02-07T17:45:43.660Z,100544.53
2024-02-07T17:50:45.338Z,100543.19
2024-02-07T17:55:47.038Z,100545.59
2024-02-07T18:00:48.652Z,100531.78
2024-02-07T18:05:50.458Z,100522.69
2024-02-07T18:10:57.039Z,100523.63
2024-02-07T18:15:58.865Z,100522.47
2024-02-07T18:21:00.397Z,100527.41
2024-02-07T18:26:02.105Z,100523.25
2024-02-07T18:31:04.081Z,100526.13
2024-02-07T18:36:07.730Z,100534.63
2024-02-07T18:41:09.343Z,100535.16
2024-02-07T18:46:10.887Z,100529.72
2024-02-07T18:51:12.473Z,100531.94
2024-02-07T18:56:14.611Z,100533.53
2024-02-07T19:01:16.926Z,100526.78
2024-02-07T19:06:18.599Z,100534.66
2024-02-07T19:11:20.710Z,100524.41
2024-02-07T19:16:25.537Z,100529.19
2024-02-07T19:21:28.371Z,100534.09
2024-02-07T19:26:30.010Z,100516.13
2024-02-07T19:31:31.577Z,100528.84
2024-02-07T19:36:33.211Z,100535.25
2024-02-07T19:41:34.939Z,100530.06
2024-02-07T19:46:37.310Z,100516.13
2024-02-07T19:51:38.936Z,100524.41
2024-02-07T19:56:42.640Z,100530.41
2024-02-07T20:01:44.386Z,100529.59
2024-02-07T20:06:46.060Z,100525.44
2024-02-07T20:11:49.200Z,100526.53
2024-02-07T20:16:50.872Z,100529.13
2024-02-07T20:21:52.668Z,100531.84
2024-02-07T20:26:56.769Z,100532.09
2024-02-07T20:32:02.608Z,100516.28
2024-02-07T20:37:04.399Z,100521.44
2024-02-07T20:42:06.037Z,100520.84
2024-02-07T20:47:07.616Z,100511.53
2024-02-07T20:52:09.345Z,100518.25
2024-02-07T20:57:10.978Z,100517.91
2024-02-07T21:02:12.587Z,100522.16
2024-02-07T21:07:14.320Z,100512.25
2024-02-07T21:12:16.058Z,100508.72
2024-02-07T21:17:17.778Z,100520.31
2024-02-07T21:22:22.364Z,100511.00
2024-02-07T21:27:23.877Z,100499.38
2024-02-07T21:32:25.545Z,100488.38
2024-02-07T21:37:27.194Z,100478.09
2024-02-07T21:42:30.033Z,100466.22
2024-02-07T21:47:31.675Z,100467.81
2024-02-07T21:52:33.578Z,100486.50
2024-02-07T21:57:35.148Z,100489.19
2024-02-07T22:02:36.714Z,100477.31
2024-02-07T22:07:38.329Z,100472.44
2024-02-07T22:12:39.939Z,100483.31
2024-02-07T22:17:41.651Z,100478.94
2024-02-07T22:22:43.994Z,100478.81
2024-02-07T22:27:45.595Z,100480.84
2024-02-07T22:32:51.766Z,100472.44
2024-02-07T22:37:53.532Z,100471.66
2024-02-07T22:42:55.098Z,100476.38
2024-02-07T22:47:57.255Z,100477.22
2024-02-07T22:52:58.947Z,100459.63
2024-02-07T22:58:00.473Z,100464.34
2024-02-07T23:03:02.090Z,100458.72
2024-02-07T23:08:04.071Z,100465.66
2024-02-07T23:13:05.932Z,100476.19
2024-02-07T23:18:08.450Z,100474.25
2024-02-07T23:23:10.080Z,100467.34
2024-02-07T23:28:14.334Z,100469.13
2024-02-07T23:33:20.872Z,100467.59
2024-02-07T23:38:22.466Z,100460.03
2024-02-07T23:43:24.218Z,100466.81
2024-02-07T23:48:25.964Z,100462.66
2024-02-07T23:53:27.558Z,100460.94
2024-02-07T23:58:29.138Z,100470.03
